createdAt,value
2022-12-15T00:02:05.229Z,7.82
2022-12-15T00:04:49.999Z,7.60
2022-12-15T00:07:34.980Z,6.43
2022-12-15T00:10:19.995Z,7.53
2022-12-15T00:13:04.897Z,7.23
2022-12-15T00:15:49.862Z,6.68
2022-12-15T00:18:34.647Z,7.55
2022-12-15T00:21:19.765Z,7.22
2022-12-15T00:24:04.628Z,7.15
2022-12-15T00:26:49.737Z,6.63
2022-12-15T00:29:34.463Z,6.75
2022-12-15T00:32:19.743Z,6.65
2022-12-15T00:35:04.688Z,6.75
2022-12-15T00:37:49.659Z,7.40
2022-12-15T00:40:16.127Z,6.73
2022-12-15T00:42:42.484Z,7.28
2022-12-15T00:45:09.277Z,6.53
2022-12-15T00:47:36.460Z,7.38
2022-12-15T00:50:22.030Z,6.65
2022-12-15T00:53:07.331Z,6.90
2022-12-15T00:55:52.232Z,7.38
2022-12-15T00:58:37.492Z,7.25
2022-12-15T01:01:27.403Z,6.18
2022-12-15T01:04:12.748Z,7.05
2022-12-15T01:06:57.993Z,6.60
2022-12-15T01:09:43.512Z,6.03
2022-12-15T01:12:28.350Z,6.32
2022-12-15T01:15:13.213Z,5.75
2022-12-15T01:17:57.843Z,6.10
2022-12-15T01:20:25.323Z,5.90
2022-12-15T01:22:54.789Z,5.65
2022-12-15T01:25:24.162Z,6.45
2022-12-15T01:27:50.910Z,5.75
2022-12-15T01:30:20.974Z,6.50
2022-12-15T01:32:47.627Z,6.77
2022-12-15T01:35:14.589Z,6.00
2022-12-15T01:37:41.102Z,6.18
2022-12-15T01:40:30.580Z,6.18
2022-12-15T01:42:56.934Z,6.28
2022-12-15T01:45:29.432Z,6.67
2022-12-15T01:48:12.604Z,6.50
2022-12-15T01:50:45.140Z,5.82
2022-12-15T01:53:14.149Z,5.78
2022-12-15T01:55:44.197Z,7.03
2022-12-15T01:58:17.268Z,6.27
2022-12-15T02:00:43.777Z,6.32
2022-12-15T02:03:10.751Z,5.70
2022-12-15T02:05:39.807Z,5.85
2022-12-15T02:08:06.867Z,5.78
2022-12-15T02:14:05.740Z,6.20
2022-12-15T02:16:41.099Z,5.47
2022-12-15T02:19:16.598Z,6.25
2022-12-15T02:21:54.220Z,6.20
2022-12-15T02:24:39.805Z,5.87
2022-12-15T02:27:22.677Z,5.72
2022-12-15T02:30:30.601Z,5.68
2022-12-15T02:33:21.753Z,5.40
2022-12-15T02:36:04.455Z,6.15
2022-12-15T02:38:41.440Z,5.83
2022-12-15T02:41:44.046Z,6.30
2022-12-15T02:44:16.027Z,6.40
2022-12-15T02:47:12.929Z,6.43
2022-12-15T02:50:01.375Z,6.35
2022-12-15T02:53:00.176Z,5.80
2022-12-15T02:55:35.820Z,5.95
2022-12-15T02:58:35.610Z,5.88
2022-12-15T03:01:28.298Z,5.63
2022-12-15T03:03:56.011Z,6.40
2022-12-15T03:06:25.076Z,5.90
2022-12-15T03:08:51.431Z,6.30
2022-12-15T03:11:17.954Z,6.53
2022-12-15T03:13:44.380Z,5.72
2022-12-15T03:16:10.870Z,5.90
2022-12-15T03:18:37.368Z,5.73
2022-12-15T03:21:03.915Z,5.50
2022-12-15T03:23:30.686Z,6.30
2022-12-15T03:25:57.255Z,6.30
2022-12-15T03:28:24.438Z,6.03
2022-12-15T03:30:50.941Z,5.60
2022-12-15T03:33:18.121Z,5.22
2022-12-15T03:35:44.550Z,5.30
2022-12-15T03:38:10.902Z,5.20
2022-12-15T03:40:37.268Z,6.45
2022-12-15T03:43:03.700Z,5.80
2022-12-15T03:45:30.031Z,5.97
2022-12-15T03:47:58.002Z,5.65
2022-12-15T03:50:26.399Z,5.28
2022-12-15T03:52:54.998Z,5.55
2022-12-15T03:55:22.350Z,5.47
2022-12-15T03:57:49.350Z,5.63
2022-12-15T04:00:16.198Z,5.97
2022-12-15T04:02:43.716Z,5.88
2022-12-15T04:05:27.904Z,6.40
2022-12-15T04:07:55.704Z,5.33
2022-12-15T04:10:26.268Z,5.68
2022-12-15T04:13:05.407Z,6.30
2022-12-15T04:15:32.691Z,5.68
2022-12-15T04:18:01.953Z,5.95
2022-12-15T04:20:29.045Z,5.90
2022-12-15T04:22:55.520Z,5.68
2022-12-15T04:25:42.838Z,6.03
2022-12-15T04:28:29.785Z,4.90
2022-12-15T04:31:19.258Z,5.90
2022-12-15T04:34:08.582Z,5.40
2022-12-15T04:36:55.256Z,5.82
2022-12-15T04:39:40.581Z,5.78
2022-12-15T04:42:25.571Z,4.88
2022-12-15T04:45:16.999Z,5.30
2022-12-15T04:48:05.105Z,5.80
2022-12-15T04:50:49.976Z,6.03
2022-12-15T04:53:36.778Z,5.80
2022-12-15T04:56:22.515Z,5.88
2022-12-15T04:59:07.917Z,5.82
2022-12-15T05:01:53.305Z,4.93
2022-12-15T05:04:38.594Z,6.15
2022-12-15T05:07:23.456Z,5.78
2022-12-15T05:10:14.607Z,5.18
2022-12-15T05:13:00.395Z,5.45
2022-12-15T05:15:45.166Z,5.47
2022-12-15T05:18:29.885Z,5.32
2022-12-15T05:21:16.786Z,5.13
2022-12-15T05:24:02.067Z,5.53
2022-12-15T05:26:52.286Z,5.30
2022-12-15T05:29:38.270Z,5.30
2022-12-15T05:32:04.726Z,5.60
2022-12-15T05:34:32.986Z,5.47
2022-12-15T05:37:01.717Z,5.53
2022-12-15T05:39:29.476Z,5.40
2022-12-15T05:41:56.663Z,5.23
2022-12-15T05:44:26.398Z,5.03
2022-12-15T05:46:53.325Z,5.07
2022-12-15T05:49:20.650Z,5.90
2022-12-15T05:51:47.781Z,5.55
2022-12-15T05:54:17.045Z,5.30
2022-12-15T05:56:44.265Z,5.28
2022-12-15T05:59:10.797Z,5.90
2022-12-15T06:01:37.284Z,6.43
2022-12-15T06:04:04.830Z,6.10
2022-12-15T06:06:31.410Z,5.83
2022-12-15T06:08:58.196Z,6.00
2022-12-15T06:11:24.555Z,6.38
2022-12-15T06:13:50.933Z,6.18
2022-12-15T06:16:19.990Z,6.63
2022-12-15T06:18:50.455Z,6.57
2022-12-15T06:21:19.712Z,6.80
2022-12-15T06:23:46.547Z,6.18
2022-12-15T06:26:21.578Z,5.78
2022-12-15T06:28:48.888Z,6.35
2022-12-15T06:31:17.806Z,6.47
2022-12-15T06:33:44.349Z,6.07
2022-12-15T06:36:13.833Z,6.57
2022-12-15T06:38:43.480Z,5.85
2022-12-15T06:41:15.008Z,6.63
2022-12-15T06:43:42.038Z,6.20
2022-12-15T06:46:09.465Z,6.10
2022-12-15T06:48:36.026Z,6.28
2022-12-15T06:51:05.335Z,6.70
2022-12-15T06:53:32.663Z,6.05
2022-12-15T06:56:02.073Z,5.93
2022-12-15T06:58:28.776Z,6.53
2022-12-15T07:00:56.148Z,6.60
2022-12-15T07:03:22.856Z,6.75
2022-12-15T07:06:01.208Z,5.95
2022-12-15T07:08:32.232Z,6.13
2022-12-15T07:11:03.521Z,6.30
2022-12-15T07:13:30.950Z,6.28
2022-12-15T07:16:02.329Z,5.38
2022-12-15T07:18:29.694Z,6.10
2022-12-15T07:20:57.449Z,6.00
2022-12-15T07:23:39.893Z,5.78
2022-12-15T07:26:11.739Z,6.90
2022-12-15T07:28:38.599Z,6.32
2022-12-15T07:31:11.020Z,6.05
2022-12-15T07:33:38.440Z,5.83
2022-12-15T07:36:05.763Z,6.57
2022-12-15T07:38:32.298Z,6.43
2022-12-15T07:41:04.112Z,6.70
2022-12-15T07:43:31.726Z,7.18
2022-12-15T07:45:59.012Z,6.87
2022-12-15T07:48:25.616Z,7.30
2022-12-15T07:51:04.372Z,6.63
2022-12-15T07:53:35.213Z,6.43
2022-12-15T07:56:08.903Z,6.63
2022-12-15T07:58:36.598Z,6.77
2022-12-15T08:01:07.723Z,7.00
2022-12-15T08:03:35.724Z,6.30
2022-12-15T08:06:11.619Z,7.03
2022-12-15T08:08:38.555Z,6.95
2022-12-15T08:11:10.796Z,7.60
2022-12-15T08:14:02.037Z,7.05
2022-12-15T08:16:25.214Z,7.28
2022-12-15T08:18:51.733Z,6.95
2022-12-15T08:21:18.586Z,7.68
2022-12-15T08:23:45.302Z,6.60
2022-12-15T08:26:14.614Z,6.93
2022-12-15T08:28:42.241Z,7.90
2022-12-15T08:31:20.446Z,6.60
2022-12-15T08:33:48.087Z,7.45
2022-12-15T08:36:16.820Z,7.47
2022-12-15T08:38:44.460Z,7.30
2022-12-15T08:41:20.247Z,7.35
2022-12-15T08:43:49.419Z,8.52
2022-12-15T08:46:17.755Z,12.40
2022-12-15T08:48:44.842Z,12.00
2022-12-15T08:51:12.029Z,11.20
2022-12-15T08:53:38.679Z,11.13
2022-12-15T08:56:07.194Z,9.68
2022-12-15T08:58:34.147Z,11.27
2022-12-15T09:01:02.420Z,10.07
2022-12-15T09:03:29.618Z,10.07
2022-12-15T09:05:57.637Z,10.52
2022-12-15T09:08:24.537Z,9.73
2022-12-15T09:10:52.630Z,10.07
2022-12-15T09:13:19.319Z,9.60
2022-12-15T09:16:08.917Z,9.43
2022-12-15T09:18:33.790Z,10.15
2022-12-15T09:21:04.636Z,9.10
2022-12-15T09:23:31.967Z,8.55
2022-12-15T09:26:10.673Z,9.70
2022-12-15T09:28:38.391Z,8.77
2022-12-15T09:31:13.317Z,9.50
2022-12-15T09:33:41.694Z,9.35
2022-12-15T09:36:09.459Z,9.02
2022-12-15T09:38:40.324Z,9.30
2022-12-15T09:41:09.894Z,8.80
2022-12-15T09:43:46.756Z,10.30
2022-12-15T09:46:39.844Z,9.65
2022-12-15T09:49:19.407Z,10.63
2022-12-15T09:52:05.918Z,10.70
2022-12-15T09:54:37.516Z,18.00
2022-12-15T09:57:44.808Z,12.80
2022-12-15T10:00:25.792Z,11.45
2022-12-15T10:03:07.980Z,12.25
2022-12-15T10:06:16.040Z,11.20
2022-12-15T10:08:50.434Z,10.82
2022-12-15T10:11:56.953Z,9.23
2022-12-15T10:14:30.357Z,10.20
2022-12-15T10:17:06.817Z,10.23
2022-12-15T10:19:42.280Z,10.33
2022-12-15T10:22:13.877Z,10.32
2022-12-15T10:28:05.158Z,9.13
2022-12-15T10:30:32.001Z,10.93
2022-12-15T10:33:10.757Z,9.93
2022-12-15T10:35:39.722Z,9.95
2022-12-15T10:38:13.844Z,9.60
2022-12-15T10:40:50.276Z,10.25
2022-12-15T10:43:37.312Z,9.23
2022-12-15T10:46:07.239Z,9.17
2022-12-15T10:48:33.718Z,8.55
2022-12-15T10:51:32.571Z,9.80
2022-12-15T10:54:01.706Z,9.18
2022-12-15T10:56:33.789Z,9.52
2022-12-15T10:59:04.019Z,9.40
2022-12-15T11:01:33.636Z,7.80
2022-12-15T11:04:00.599Z,8.65
2022-12-15T11:06:34.539Z,9.43
2022-12-15T11:09:10.149Z,9.00
2022-12-15T11:12:05.941Z,8.73
2022-12-15T11:14:52.753Z,9.15
2022-12-15T11:17:22.025Z,9.82
2022-12-15T11:20:04.865Z,8.85
2022-12-15T11:22:50.322Z,9.13
2022-12-15T11:25:29.214Z,8.53
2022-12-15T11:27:59.029Z,8.23
2022-12-15T11:30:33.719Z,8.35
2022-12-15T11:33:01.306Z,8.20
2022-12-15T11:35:39.032Z,8.45
2022-12-15T11:38:19.507Z,8.30
2022-12-15T11:40:45.910Z,8.48
2022-12-15T11:43:36.562Z,7.97
2022-12-15T11:46:20.198Z,8.05
2022-12-15T11:49:01.839Z,8.68
2022-12-15T11:51:42.563Z,7.63
2022-12-15T11:54:23.597Z,7.72
2022-12-15T11:57:10.760Z,7.57
2022-12-15T12:00:13.884Z,7.93
2022-12-15T12:02:58.674Z,7.90
2022-12-15T12:05:46.743Z,7.90
2022-12-15T12:08:40.120Z,9.02
2022-12-15T12:11:20.931Z,8.02
2022-12-15T12:14:12.075Z,7.20
2022-12-15T12:17:03.569Z,7.93
2022-12-15T12:19:52.263Z,7.73
2022-12-15T12:22:28.037Z,8.13
2022-12-15T12:25:15.594Z,7.47
2022-12-15T12:28:01.925Z,7.43
2022-12-15T12:30:38.054Z,8.07
2022-12-15T12:33:11.831Z,7.83
2022-12-15T12:35:45.739Z,7.97
2022-12-15T12:38:13.592Z,8.02
2022-12-15T12:40:59.653Z,7.40
2022-12-15T12:43:39.043Z,7.88
2022-12-15T12:46:14.985Z,7.53
2022-12-15T12:49:13.780Z,8.20
2022-12-15T12:51:41.950Z,7.38
2022-12-15T12:54:39.837Z,8.25
2022-12-15T12:57:12.018Z,7.63
2022-12-15T12:59:58.450Z,7.73
2022-12-15T13:02:25.439Z,7.20
2022-12-15T13:04:57.949Z,6.97
2022-12-15T13:07:36.263Z,7.63
2022-12-15T13:10:17.966Z,7.97
2022-12-15T13:12:52.303Z,8.10
2022-12-15T13:15:28.876Z,7.97
2022-12-15T13:18:04.556Z,7.80
2022-12-15T13:20:33.235Z,8.35
2022-12-15T13:23:25.273Z,7.40
2022-12-15T13:25:57.888Z,7.50
2022-12-15T13:28:42.585Z,8.85
2022-12-15T13:31:18.642Z,8.32
2022-12-15T13:33:50.747Z,8.32
2022-12-15T13:36:42.223Z,9.05
2022-12-15T13:39:14.619Z,8.63
2022-12-15T13:41:54.516Z,9.93
2022-12-15T13:44:48.873Z,9.65
2022-12-15T13:47:22.106Z,8.98
2022-12-15T13:50:01.327Z,12.23
2022-12-15T13:53:08.713Z,15.80
2022-12-15T13:55:32.451Z,15.07
2022-12-15T13:58:05.109Z,13.95
2022-12-15T14:00:32.765Z,13.77
2022-12-15T14:03:07.221Z,14.13
2022-12-15T14:05:33.773Z,13.53
2022-12-15T14:08:03.409Z,12.70
2022-12-15T14:10:32.786Z,13.02
2022-12-15T14:13:15.580Z,12.73
2022-12-15T14:15:50.801Z,14.23
2022-12-15T14:18:35.680Z,11.70
2022-12-15T14:21:06.556Z,12.02
2022-12-15T14:24:04.021Z,12.82
2022-12-15T14:26:31.758Z,12.75
2022-12-15T14:29:05.217Z,13.02
2022-12-15T14:31:31.894Z,12.27
2022-12-15T14:34:29.220Z,12.27
2022-12-15T14:36:59.474Z,12.80
2022-12-15T14:39:32.708Z,13.05
2022-12-15T14:42:01.295Z,12.27
2022-12-15T14:44:50.859Z,12.33
2022-12-15T14:47:26.756Z,12.52
2022-12-15T14:49:55.483Z,12.13
2022-12-15T14:52:35.610Z,12.25
2022-12-15T14:55:04.640Z,12.98
2022-12-15T14:57:45.163Z,11.80
2022-12-15T15:00:48.693Z,11.70
2022-12-15T15:05:49.924Z,11.20
2022-12-15T15:08:29.933Z,11.55
2022-12-15T15:11:01.418Z,12.07
2022-12-15T15:13:40.707Z,11.43
2022-12-15T15:16:15.471Z,12.50
2022-12-15T15:18:43.262Z,12.20
2022-12-15T15:21:18.173Z,11.40
2022-12-15T15:24:01.814Z,10.47
2022-12-15T15:26:30.147Z,11.15
2022-12-15T15:28:57.028Z,10.90
2022-12-15T15:31:41.257Z,10.93
2022-12-15T15:34:08.619Z,11.30
2022-12-15T15:36:37.816Z,12.30
2022-12-15T15:39:12.701Z,12.18
2022-12-15T15:41:39.232Z,11.73
2022-12-15T15:44:13.744Z,11.93
2022-12-15T15:46:47.994Z,13.15
2022-12-15T15:49:18.515Z,11.67
2022-12-15T15:51:45.318Z,12.10
2022-12-15T15:54:16.423Z,12.15
2022-12-15T15:56:42.825Z,12.38
2022-12-15T15:59:14.956Z,11.68
2022-12-15T16:01:41.595Z,11.03
2022-12-15T16:04:08.119Z,12.07
2022-12-15T16:06:36.018Z,10.95
2022-12-15T16:09:02.594Z,12.23
2022-12-15T16:11:30.829Z,12.27
2022-12-15T16:13:57.713Z,11.57
2022-12-15T16:16:29.933Z,11.30
2022-12-15T16:18:56.393Z,12.93
2022-12-15T16:21:27.012Z,12.65
2022-12-15T16:23:54.872Z,11.68
2022-12-15T16:26:27.891Z,11.30
2022-12-15T16:28:54.364Z,12.20
2022-12-15T16:31:41.977Z,12.35
2022-12-15T16:34:08.795Z,11.90
2022-12-15T16:36:35.383Z,12.55
2022-12-15T16:39:01.941Z,12.43
2022-12-15T16:41:28.326Z,12.30
2022-12-15T16:43:54.787Z,12.13
2022-12-15T16:46:21.184Z,12.93
2022-12-15T16:48:47.819Z,13.75
2022-12-15T16:51:32.455Z,12.13
2022-12-15T16:53:58.852Z,12.80
2022-12-15T16:56:25.302Z,13.05
2022-12-15T16:58:57.476Z,12.73
2022-12-15T17:01:29.360Z,13.35
2022-12-15T17:03:56.111Z,13.77
2022-12-15T17:06:22.623Z,14.23
2022-12-15T17:08:55.034Z,13.05
2022-12-15T17:11:23.788Z,14.18
2022-12-15T17:13:52.342Z,13.52
2022-12-15T17:16:21.063Z,13.30
2022-12-15T17:18:48.066Z,13.95
2022-12-15T17:21:34.156Z,13.60
2022-12-15T17:24:11.270Z,13.55
2022-12-15T17:26:37.909Z,13.98
2022-12-15T17:29:13.130Z,13.77
2022-12-15T17:31:39.539Z,13.82
2022-12-15T17:34:25.626Z,13.73
2022-12-15T17:36:52.540Z,13.27
2022-12-15T17:39:21.095Z,13.00
2022-12-15T17:42:04.359Z,13.13
2022-12-15T17:44:36.738Z,13.20
2022-12-15T17:47:05.650Z,13.68
2022-12-15T17:49:36.076Z,13.45
2022-12-15T17:52:07.699Z,14.10
2022-12-15T17:54:34.164Z,12.93
2022-12-15T17:57:00.599Z,13.45
2022-12-15T17:59:27.104Z,13.63
2022-12-15T18:01:56.811Z,14.20
2022-12-15T18:04:23.421Z,13.88
2022-12-15T18:06:49.894Z,13.43
2022-12-15T18:09:18.235Z,14.52
2022-12-15T18:11:46.889Z,13.32
2022-12-15T18:14:16.067Z,14.07
2022-12-15T18:16:43.465Z,14.88
2022-12-15T18:19:09.917Z,15.50
2022-12-15T18:21:37.135Z,15.63
2022-12-15T18:24:11.293Z,15.48
2022-12-15T18:26:38.071Z,16.05
2022-12-15T18:29:17.843Z,16.13
2022-12-15T18:31:47.013Z,15.20
2022-12-15T18:34:16.348Z,16.58
2022-12-15T18:36:42.971Z,15.40
2022-12-15T18:39:30.242Z,15.77
2022-12-15T18:41:57.254Z,15.40
2022-12-15T18:44:28.835Z,15.07
2022-12-15T18:46:55.606Z,14.90
2022-12-15T18:49:23.513Z,15.07
2022-12-15T18:51:50.405Z,14.65
2022-12-15T18:54:22.320Z,15.40
2022-12-15T18:56:49.998Z,14.67
2022-12-15T18:59:17.754Z,14.90
2022-12-15T19:01:46.183Z,14.15
2022-12-15T19:04:13.685Z,14.80
2022-12-15T19:06:40.949Z,13.73
2022-12-15T19:09:17.300Z,14.27
2022-12-15T19:12:06.483Z,13.93
2022-12-15T19:14:42.617Z,14.90
2022-12-15T19:17:33.677Z,13.82
2022-12-15T19:20:20.686Z,14.80
2022-12-15T19:22:48.530Z,14.40
2022-12-15T19:25:26.507Z,14.70
2022-12-15T19:28:00.652Z,13.75
2022-12-15T19:30:33.202Z,13.65
2022-12-15T19:33:01.185Z,13.75
2022-12-15T19:35:28.156Z,13.37
2022-12-15T19:37:57.254Z,13.43
2022-12-15T19:40:27.714Z,14.05
2022-12-15T19:42:55.495Z,12.93
2022-12-15T19:45:25.248Z,13.45
2022-12-15T19:47:51.999Z,14.03
2022-12-15T19:50:28.204Z,13.23
2022-12-15T19:52:59.234Z,12.85
2022-12-15T19:55:29.922Z,12.82
2022-12-15T19:57:56.353Z,12.77
2022-12-15T20:00:24.781Z,13.10
2022-12-15T20:02:54.511Z,14.20
2022-12-15T20:05:25.417Z,13.00
2022-12-15T20:07:54.593Z,13.15
2022-12-15T20:10:29.392Z,13.60
2022-12-15T20:12:58.518Z,13.47
2022-12-15T20:15:26.285Z,13.18
2022-12-15T20:17:58.634Z,14.13
2022-12-15T20:20:27.874Z,14.43
2022-12-15T20:22:57.586Z,13.93
2022-12-15T20:25:28.687Z,13.67
2022-12-15T20:27:56.352Z,13.32
2022-12-15T20:30:26.607Z,14.85
2022-12-15T20:32:53.519Z,14.32
2022-12-15T20:35:21.888Z,16.00
2022-12-15T20:37:49.522Z,14.00
2022-12-15T20:40:17.553Z,13.93
2022-12-15T20:42:43.935Z,13.52
2022-12-15T20:45:14.643Z,14.35
2022-12-15T20:47:43.965Z,14.13
2022-12-15T20:50:40.844Z,14.30
2022-12-15T20:53:23.775Z,13.85
2022-12-15T20:55:52.496Z,15.52
2022-12-15T20:58:19.588Z,14.30
2022-12-15T21:00:48.392Z,14.75
2022-12-15T21:03:26.894Z,14.73
2022-12-15T21:05:56.238Z,14.27
2022-12-15T21:08:31.106Z,14.98
2022-12-15T21:11:02.377Z,14.18
2022-12-15T21:13:32.956Z,13.98
2022-12-15T21:15:59.658Z,14.53
2022-12-15T21:19:18.227Z,14.38
2022-12-15T21:21:20.828Z,14.02
2022-12-15T21:23:47.643Z,14.82
2022-12-15T21:26:18.278Z,13.85
2022-12-15T21:28:44.787Z,12.40
2022-12-15T21:31:11.172Z,14.32
2022-12-15T21:33:37.551Z,14.15
2022-12-15T21:36:04.102Z,13.60
2022-12-15T21:38:36.504Z,14.45
2022-12-15T21:41:05.393Z,13.63
2022-12-15T21:43:35.231Z,14.13
2022-12-15T21:46:10.879Z,15.77
2022-12-15T21:48:55.936Z,14.15
2022-12-15T21:51:22.471Z,14.63
2022-12-15T21:53:48.919Z,15.23
2022-12-15T21:56:17.281Z,14.85
2022-12-15T21:58:44.870Z,15.00
2022-12-15T22:01:21.380Z,14.80
2022-12-15T22:03:52.153Z,14.85
2022-12-15T22:06:21.804Z,15.03
2022-12-15T22:08:48.970Z,15.15
2022-12-15T22:11:25.432Z,14.98
2022-12-15T22:13:55.116Z,14.45
2022-12-15T22:16:22.204Z,15.07
2022-12-15T22:18:51.484Z,13.80
2022-12-15T22:21:18.315Z,14.57
2022-12-15T22:23:47.834Z,14.07
2022-12-15T22:26:19.494Z,13.68
2022-12-15T22:28:46.013Z,14.73
2022-12-15T22:31:12.476Z,13.73
2022-12-15T22:33:38.858Z,15.25
2022-12-15T22:36:05.338Z,15.27
2022-12-15T22:38:32.002Z,13.48
2022-12-15T22:40:59.829Z,13.80
2022-12-15T22:43:36.513Z,13.47
2022-12-15T22:46:04.353Z,14.38
2022-12-15T22:48:34.599Z,14.55
2022-12-15T22:51:01.767Z,13.75
2022-12-15T22:53:31.681Z,13.73
2022-12-15T22:55:59.655Z,13.63
2022-12-15T22:58:36.757Z,13.85
2022-12-15T23:01:06.526Z,14.48
2022-12-15T23:03:34.434Z,12.65
2022-12-15T23:06:02.865Z,13.27
2022-12-15T23:08:30.867Z,13.33
2022-12-15T23:11:17.392Z,13.25
2022-12-15T23:13:44.481Z,13.55
2022-12-15T23:16:21.392Z,13.35
2022-12-15T23:18:53.822Z,13.70
2022-12-15T23:21:22.430Z,13.87
2022-12-15T23:23:49.367Z,13.05
2022-12-15T23:26:19.028Z,14.18
2022-12-15T23:28:45.884Z,13.60
2022-12-15T23:31:12.543Z,13.98
2022-12-15T23:33:39.384Z,13.07
2022-12-15T23:36:06.278Z,13.55
2022-12-15T23:38:32.863Z,13.82
2022-12-15T23:40:59.604Z,12.73
2022-12-15T23:43:28.564Z,14.15
2022-12-15T23:46:06.691Z,13.13
2022-12-15T23:48:35.654Z,13.43
2022-12-15T23:51:13.656Z,13.27
2022-12-15T23:53:41.400Z,13.90
2022-12-15T23:56:15.788Z,13.18
2022-12-15T23:58:43.840Z,13.43
